»·PEaware :: FDX1180 KSJC-KRNO

FDX1180 :: KSJC-KRNO

FLIGHT INFORMATION

Flight Status: Arrived
Operator:
Federal Express
More flights by this operator :: More flights under this callsign
Pilot: Anonymous 10181 (10181)
Aircraft: AIRBUS A300B4-600
(A306)
More flights by this aircraft type
Origin: KSJC Mineta San Jose Intl
United States
Destination: KRNO Reno/Tahoe Intl
United States
More flights between these airports :: More routes between these airports
Route: SAC SIER3
File this flight plan on PilotEdge
Remarks: Happy Thursday!
Altitude:
(Current/Filed)
21,000ft
Speed:
(Current/Filed)
450kts
Departed: 19-Nov-20 07:58 PM
Arrived: 19-Nov-20 08:36 PM
Distance/Time
Traveled:
164nm/0:38
Distance/Time
To Go:
Arrived

Flight Plot

Page will automatically refresh every two minutes.

Flight plan parsing failed; only flown route is shown


Map Options




Map Legend


Flown Route
Filed Route
Departure Airport
Arrival Airport
Navaid (VOR, NDB)
Fix

Horizontal Profiles

Position Reports

Time Latitude Longitude Heading Altitude Ground
Speed
19-Nov-20 19:22 37.374162 -121.935572 323 75ft 0kts
19-Nov-20 19:23 37.374162 -121.935572 323 75ft 0kts
19-Nov-20 19:24 37.374162 -121.935572 323 75ft 0kts
19-Nov-20 19:25 37.374162 -121.935572 323 75ft 0kts
19-Nov-20 19:26 37.374162 -121.935572 323 75ft 0kts
19-Nov-20 19:27 37.374162 -121.935572 323 75ft 0kts
19-Nov-20 19:28 37.374162 -121.935572 323 75ft 0kts
19-Nov-20 19:29 37.374162 -121.935572 323 75ft 0kts
19-Nov-20 19:30 37.374162 -121.935572 323 75ft 0kts
19-Nov-20 19:31 37.374162 -121.935572 323 75ft 0kts
19-Nov-20 19:32 37.374162 -121.935572 323 75ft 0kts
19-Nov-20 19:33 37.374162 -121.935572 323 75ft 0kts
19-Nov-20 19:34 37.374162 -121.935572 323 75ft 0kts
19-Nov-20 19:35 37.374162 -121.935572 323 75ft 0kts
19-Nov-20 19:36 37.374162 -121.935572 323 75ft 0kts
19-Nov-20 19:37 37.374162 -121.935572 323 75ft 0kts
19-Nov-20 19:38 37.373912 -121.935303 320 75ft 2kts
19-Nov-20 19:39 37.373458 -121.934816 319 75ft 1kts
19-Nov-20 19:40 37.373410 -121.934763 322 75ft 0kts
19-Nov-20 19:41 37.373410 -121.934764 322 75ft 0kts
19-Nov-20 19:42 37.373410 -121.934764 322 75ft 0kts
19-Nov-20 19:43 37.373522 -121.935248 227 75ft 0kts
19-Nov-20 19:44 37.373522 -121.935248 227 75ft 0kts
19-Nov-20 19:45 37.373522 -121.935248 227 75ft 0kts
19-Nov-20 19:46 37.371758 -121.935017 139 75ft 10kts
19-Nov-20 19:47 37.369586 -121.932622 138 75ft 10kts
19-Nov-20 19:48 37.367476 -121.930313 138 75ft 9kts
19-Nov-20 19:49 37.365385 -121.928035 139 75ft 10kts
19-Nov-20 19:50 37.363015 -121.925175 81 75ft 6kts
19-Nov-20 19:51 37.361089 -121.922342 138 75ft 12kts
19-Nov-20 19:52 37.358337 -121.919307 139 75ft 14kts
19-Nov-20 19:53 37.354947 -121.915614 138 75ft 16kts
19-Nov-20 19:54 37.353062 -121.914429 220 75ft 3kts
19-Nov-20 19:55 37.352973 -121.914544 225 75ft 0kts
19-Nov-20 19:56 37.352526 -121.915122 227 75ft 9kts
19-Nov-20 19:57 37.358375 -121.921959 318 75ft 124kts
19-Nov-20 19:58 37.398574 -121.964465 321 3214ft 194kts
19-Nov-20 19:59 37.442101 -122.013224 320 3977ft 227kts
19-Nov-20 20:00 37.494957 -122.071073 331 6038ft 265kts
19-Nov-20 20:01 37.567286 -122.052920 23 9701ft 284kts
19-Nov-20 20:02 37.640837 -122.011559 20 13298ft 305kts
19-Nov-20 20:03 37.725594 -121.963738 20 15613ft 361kts
19-Nov-20 20:04 37.823278 -121.908420 19 17669ft 389kts
19-Nov-20 20:05 37.925230 -121.850492 18 19724ft 403kts
19-Nov-20 20:06 38.030348 -121.790658 18 21299ft 430kts
19-Nov-20 20:07 38.146224 -121.724508 18 21301ft 463kts
19-Nov-20 20:08 38.264573 -121.656506 18 21296ft 454kts
19-Nov-20 20:09 38.378955 -121.590573 18 21308ft 447kts
19-Nov-20 20:10 38.488154 -121.510618 46 21317ft 464kts
19-Nov-20 20:11 38.575628 -121.386642 41 21305ft 463kts
19-Nov-20 20:12 38.666623 -121.268805 41 21288ft 462kts
19-Nov-20 20:13 38.757762 -121.151542 41 21292ft 462kts
19-Nov-20 20:14 38.849352 -121.033478 41 21312ft 463kts
19-Nov-20 20:15 38.941248 -120.914622 41 21330ft 465kts
19-Nov-20 20:16 39.033630 -120.794662 41 21334ft 464kts
19-Nov-20 20:17 39.124251 -120.676511 41 21335ft 465kts
19-Nov-20 20:18 39.218308 -120.553401 41 21306ft 467kts
19-Nov-20 20:19 39.300468 -120.444996 41 20040ft 380kts
19-Nov-20 20:20 39.372636 -120.349773 42 17690ft 362kts
19-Nov-20 20:21 39.442729 -120.256565 43 16014ft 347kts
19-Nov-20 20:22 39.511229 -120.163820 43 15993ft 358kts
19-Nov-20 20:24 39.580897 -120.069714 43 15855ft 353kts
19-Nov-20 20:25 39.645994 -119.981540 43 14539ft 324kts
19-Nov-20 20:26 39.726572 -119.950817 3 12476ft 303kts
19-Nov-20 20:27 39.808943 -119.939198 3 11331ft 293kts
19-Nov-20 20:28 39.868323 -119.886248 84 9332ft 280kts
19-Nov-20 20:29 39.859603 -119.791209 125 9013ft 259kts
19-Nov-20 20:30 39.792135 -119.773661 183 8994ft 260kts
19-Nov-20 20:31 39.720022 -119.768772 178 8684ft 265kts
19-Nov-20 20:32 39.648556 -119.768898 180 7258ft 240kts
19-Nov-20 20:33 39.588935 -119.769040 179 6037ft 192kts
19-Nov-20 20:34 39.539725 -119.769403 178 5047ft 166kts
19-Nov-20 20:35 39.497054 -119.769289 179 4428ft 89kts
19-Nov-20 20:36 39.492668 -119.770400 248 4428ft 0kts
19-Nov-20 20:37 39.493379 -119.771543 355 4428ft 13kts
19-Nov-20 20:38 39.498200 -119.770683 359 4428ft 22kts
19-Nov-20 20:39 39.503791 -119.770681 0 4428ft 17kts
19-Nov-20 20:40 39.509157 -119.770675 0 4428ft 21kts
19-Nov-20 20:42 39.509096 -119.773323 168 4427ft 23kts
19-Nov-20 20:42 39.509024 -119.773809 33 4428ft 11kts

Navigation Log

Ident Type
Flight plan parsing failed, navigation log unavailable